Main page
METAR-TAF:

METAR-TAF

Airports :

Béziers Cap d'Agde Airport

Béziers, France

latitude: 43-19N, longitude: 003-21E, elevation: 17 m

Current weather observation

The report was made 35 minutes ago, at 08:30 UTC
Wind 11 kt from the Northwest, varying between West and North
Temperature 26°C
Humidity 39%
Pressure 1018 hPa
Visibility 10 km or more
no clouds below 1500 m and no cumulonimbus

METAR: LFMU 150830Z AUTO 31011KT 270V360 CAVOK 26/11 Q1018 NOSIG

Time: 11:05 (09:05 UTC)

Forecast

The report was made 1 hour and 5 minutes ago, at 08:00 UTC
Forecast valid from 15 at 09 UTC to 16 at 09 UTC
Wind 12 kt from the West/Northwest
Visibility 10 km or more
no clouds below 1500 m and no cumulonimbus
Becoming
from 15 at 09 UTC to 15 at 12 UTC
Wind 2 kt from variable directions
Temporary
from 15 at 12 UTC to 15 at 22 UTC
Wind 12 kt from the South

TAF: LFMU 150800Z 1509/1609 30012KT CAVOK BECMG 1509/1512 VRB02KT TEMPO 1512/1522 18012KT

Weather observations and forecasts of more than 4000 airports (METAR and TAF reports).

The available stations are represented by yellow and red dots on the map.

Hover mouse over dot to see the name of the station.

Then click to see weather observations and forecasts.

To change the map : click on the green buttons with a black cross to zoom in, on the green button with a dash to zoom out, or on the green arrows for adjacent maps.


METAR-TAF: